createdAt,value
2022-09-24T00:01:30.087Z,98633.75
2022-09-24T00:04:00.621Z,98623.41
2022-09-24T00:06:29.074Z,98625.06
2022-09-24T00:08:57.485Z,98625.81
2022-09-24T00:11:26.785Z,98623.66
2022-09-24T00:13:53.718Z,98622.03
2022-09-24T00:16:22.982Z,98621.72
2022-09-24T00:18:49.882Z,98619.56
2022-09-24T00:21:21.317Z,98626.06
2022-09-24T00:23:53.754Z,98621.37
2022-09-24T00:26:40.321Z,98622.19
2022-09-24T00:29:09.479Z,98622.37
2022-09-24T00:31:36.312Z,98617.22
2022-09-24T00:34:03.807Z,98617.22
2022-09-24T00:36:30.786Z,98615.56
2022-09-24T00:38:59.319Z,98611.78
2022-09-24T00:41:31.265Z,98610.97
2022-09-24T00:43:58.474Z,98605.78
2022-09-24T00:46:44.187Z,98609.56
2022-09-24T00:49:17.605Z,98605.47
2022-09-24T00:51:48.923Z,98604.16
2022-09-24T00:54:28.569Z,98605.78
2022-09-24T00:56:59.550Z,98602.75
2022-09-24T00:59:27.648Z,98597.31
2022-09-24T01:01:59.496Z,98592.72
2022-09-24T01:04:28.592Z,98593.53
2022-09-24T01:06:56.780Z,98577.50
2022-09-24T01:09:26.173Z,98582.94
2022-09-24T01:12:24.281Z,98583.19
2022-09-24T01:15:18.310Z,98578.59
2022-09-24T01:18:20.646Z,98586.97
2022-09-24T01:21:45.484Z,98576.94
2022-09-24T01:24:36.069Z,98579.41
2022-09-24T01:27:08.491Z,98569.06
2022-09-24T01:30:04.001Z,98564.72
2022-09-24T01:32:37.465Z,98570.88
2022-09-24T01:35:31.533Z,98566.25
2022-09-24T01:38:13.042Z,98555.34
2022-09-24T01:40:42.597Z,98553.44
2022-09-24T01:43:11.779Z,98554.22
2022-09-24T01:45:40.329Z,98561.22
2022-09-24T01:48:07.797Z,98559.31
2022-09-24T01:51:06.375Z,98554.91
2022-09-24T01:53:43.377Z,98547.59
2022-09-24T01:56:30.592Z,98549.75
2022-09-24T01:59:07.316Z,98551.06
2022-09-24T02:01:41.048Z,98549.66
2022-09-24T02:04:16.819Z,98543.91
2022-09-24T02:06:51.657Z,98543.09
2022-09-24T02:09:35.921Z,98541.69
2022-09-24T02:12:22.990Z,98535.91
2022-09-24T02:14:56.833Z,98528.06
2022-09-24T02:17:27.781Z,98531.84
2022-09-24T02:19:58.824Z,98529.41
2022-09-24T02:22:26.236Z,98525.31
2022-09-24T02:25:01.310Z,98516.00
2022-09-24T02:27:28.937Z,98516.72
2022-09-24T02:30:00.067Z,98523.78
2022-09-24T02:32:31.285Z,98517.78
2022-09-24T02:35:05.129Z,98523.22
2022-09-24T02:37:40.133Z,98519.06
2022-09-24T02:40:09.941Z,98528.75
2022-09-24T02:42:37.870Z,98519.56
2022-09-24T02:45:05.664Z,98521.13
2022-09-24T02:47:32.765Z,98519.47
2022-09-24T02:50:00.287Z,98521.03
2022-09-24T02:52:28.142Z,98515.59
2022-09-24T02:54:54.925Z,98510.94
2022-09-24T02:57:21.740Z,98520.13
2022-09-24T02:59:48.511Z,98514.13
2022-09-24T03:02:15.420Z,98505.13
2022-09-24T03:04:42.704Z,98502.91
2022-09-24T03:07:10.333Z,98493.16
2022-09-24T03:09:37.167Z,98491.75
2022-09-24T03:12:05.195Z,98498.81
2022-09-24T03:14:32.121Z,98498.72
2022-09-24T03:16:58.846Z,98501.66
2022-09-24T03:19:25.583Z,98487.56
2022-09-24T03:21:52.303Z,98489.69
2022-09-24T03:24:19.137Z,98491.56
2022-09-24T03:26:45.869Z,98495.09
2022-09-24T03:29:12.680Z,98502.34
2022-09-24T03:31:39.427Z,98486.84
2022-09-24T03:34:06.229Z,98476.00
2022-09-24T03:36:33.040Z,98471.34
2022-09-24T03:38:59.782Z,98473.69
2022-09-24T03:41:27.781Z,98472.53
2022-09-24T03:43:55.043Z,98477.37
2022-09-24T03:46:24.415Z,98475.75
2022-09-24T03:48:51.227Z,98488.12
2022-09-24T03:51:20.216Z,98486.50
2022-09-24T03:53:48.379Z,98481.56
2022-09-24T03:56:16.112Z,98480.44
2022-09-24T03:58:47.841Z,98482.56
2022-09-24T04:01:19.420Z,98486.78
2022-09-24T04:03:46.242Z,98490.81
2022-09-24T04:06:13.254Z,98488.34
2022-09-24T04:08:39.978Z,98478.59
2022-09-24T04:11:06.797Z,98475.47
2022-09-24T04:13:33.529Z,98475.22
2022-09-24T04:16:04.444Z,98474.41
2022-09-24T04:18:34.631Z,98478.66
2022-09-24T04:21:03.987Z,98463.13
2022-09-24T04:23:31.537Z,98470.69
2022-09-24T04:26:02.341Z,98479.03
2022-09-24T04:28:30.342Z,98483.87
2022-09-24T04:30:57.941Z,98490.03
2022-09-24T04:33:24.844Z,98497.56
2022-09-24T04:35:51.630Z,98491.34
2022-09-24T04:38:19.696Z,98490.44
2022-09-24T04:40:46.909Z,98471.00
2022-09-24T04:43:13.700Z,98470.66
2022-09-24T04:45:40.468Z,98466.31
2022-09-24T04:48:07.272Z,98467.59
2022-09-24T04:50:34.464Z,98460.56
2022-09-24T04:53:02.518Z,98468.56
2022-09-24T04:55:29.349Z,98468.25
2022-09-24T04:57:59.426Z,98464.22
2022-09-24T05:00:26.264Z,98471.53
2022-09-24T05:02:58.333Z,98469.63
2022-09-24T05:05:25.672Z,98468.81
2022-09-24T05:07:52.871Z,98474.94
2022-09-24T05:10:19.674Z,98481.19
2022-09-24T05:12:46.495Z,98489.78
2022-09-24T05:15:13.314Z,98488.38
2022-09-24T05:17:40.616Z,98485.44
2022-09-24T05:20:10.433Z,98486.75
2022-09-24T05:22:44.557Z,98482.97
2022-09-24T05:25:12.684Z,98490.03
2022-09-24T05:27:50.947Z,98486.34
2022-09-24T05:30:18.888Z,98484.94
2022-09-24T05:32:46.461Z,98477.41
2022-09-24T05:35:13.863Z,98478.72
2022-09-24T05:37:41.194Z,98483.87
2022-09-24T05:40:27.429Z,98488.00
2022-09-24T05:43:00.543Z,98487.41
2022-09-24T05:45:27.654Z,98488.56
2022-09-24T05:47:54.697Z,98488.56
2022-09-24T05:50:21.541Z,98485.97
2022-09-24T05:52:48.359Z,98488.91
2022-09-24T05:55:15.209Z,98490.09
2022-09-24T05:57:41.964Z,98492.31
2022-09-24T06:00:09.394Z,98499.59
2022-09-24T06:02:36.270Z,98499.13
2022-09-24T06:05:03.106Z,98495.69
2022-09-24T06:07:29.862Z,98492.25
2022-09-24T06:09:59.267Z,98496.69
2022-09-24T06:12:26.064Z,98507.03
2022-09-24T06:14:54.178Z,98520.41
2022-09-24T06:17:21.601Z,98514.84
2022-09-24T06:19:52.172Z,98521.66
2022-09-24T06:22:18.974Z,98533.38
2022-09-24T06:24:46.024Z,98529.41
2022-09-24T06:27:12.927Z,98528.66
2022-09-24T06:29:39.688Z,98522.75
2022-09-24T06:32:06.468Z,98520.13
2022-09-24T06:34:33.223Z,98518.56
2022-09-24T06:36:59.953Z,98518.91
2022-09-24T06:39:27.772Z,98519.00
2022-09-24T06:41:54.630Z,98522.28
2022-09-24T06:44:21.428Z,98513.41
2022-09-24T06:46:48.400Z,98527.53
2022-09-24T06:49:15.221Z,98521.87
2022-09-24T06:51:42.049Z,98525.16
2022-09-24T06:54:08.820Z,98525.97
2022-09-24T06:56:35.614Z,98523.84
2022-09-24T06:59:02.688Z,98512.50
2022-09-24T07:01:29.683Z,98506.00
2022-09-24T07:03:56.429Z,98512.00
2022-09-24T07:06:23.271Z,98501.53
2022-09-24T07:08:53.036Z,98500.19
2022-09-24T07:11:19.752Z,98504.06
2022-09-24T07:13:46.569Z,98504.12
2022-09-24T07:16:13.271Z,98502.31
2022-09-24T07:18:40.030Z,98506.75
2022-09-24T07:21:06.801Z,98504.94
2022-09-24T07:23:33.525Z,98505.81
2022-09-24T07:26:00.288Z,98506.69
2022-09-24T07:28:27.107Z,98512.22
2022-09-24T07:31:00.470Z,98503.09
2022-09-24T07:33:27.781Z,98495.59
2022-09-24T07:35:54.535Z,98492.94
2022-09-24T07:38:22.282Z,98498.47
2022-09-24T07:40:49.656Z,98501.22
2022-09-24T07:43:16.542Z,98490.44
2022-09-24T07:45:43.378Z,98492.94
2022-09-24T07:48:11.175Z,98491.09
2022-09-24T07:50:42.861Z,98493.66
2022-09-24T07:53:13.507Z,98495.34
2022-09-24T07:55:41.260Z,98488.62
2022-09-24T07:58:11.232Z,98503.91
2022-09-24T08:00:38.031Z,98505.34
2022-09-24T08:03:05.733Z,98509.75
2022-09-24T08:05:33.280Z,98501.38
2022-09-24T08:08:00.435Z,98492.25
2022-09-24T08:10:28.657Z,98493.66
2022-09-24T08:12:57.279Z,98488.25
2022-09-24T08:15:24.160Z,98487.25
2022-09-24T08:17:51.350Z,98490.84
2022-09-24T08:20:18.830Z,98492.50
2022-09-24T08:22:45.617Z,98489.31
2022-09-24T08:25:12.407Z,98489.09
2022-09-24T08:27:39.385Z,98494.03
2022-09-24T08:30:07.186Z,98490.28
2022-09-24T08:32:33.937Z,98479.22
2022-09-24T08:35:00.681Z,98487.72
2022-09-24T08:37:28.500Z,98485.56
2022-09-24T08:39:55.304Z,98478.84
2022-09-24T08:42:42.249Z,98482.13
2022-09-24T08:45:28.368Z,98482.44
2022-09-24T08:48:07.103Z,98486.56
2022-09-24T08:50:36.227Z,98477.91
2022-09-24T08:53:26.467Z,98474.13
2022-09-24T08:55:58.361Z,98469.78
2022-09-24T08:58:25.040Z,98469.28
2022-09-24T09:01:20.571Z,98463.59
2022-09-24T09:04:16.749Z,98467.41
2022-09-24T09:07:01.689Z,98480.25
2022-09-24T09:09:45.822Z,98481.38
2022-09-24T09:12:25.353Z,98486.03
2022-09-24T09:15:02.770Z,98481.94
2022-09-24T09:17:50.821Z,98475.19
2022-09-24T09:20:26.418Z,98480.94
2022-09-24T09:22:56.160Z,98473.28
2022-09-24T09:25:25.904Z,98479.28
2022-09-24T09:28:01.301Z,98477.41
2022-09-24T09:30:37.644Z,98474.94
2022-09-24T09:33:56.866Z,98488.81
2022-09-24T09:36:29.449Z,98488.81
2022-09-24T09:39:03.742Z,98473.53
2022-09-24T09:41:52.947Z,98466.97
2022-09-24T09:44:29.786Z,98473.25
2022-09-24T09:47:16.521Z,98477.56
2022-09-24T09:49:45.638Z,98471.56
2022-09-24T09:52:22.142Z,98477.53
2022-09-24T09:54:49.147Z,98469.59
2022-09-24T09:57:20.273Z,98464.41
2022-09-24T09:59:53.380Z,98456.44
2022-09-24T10:02:25.441Z,98464.88
2022-09-24T10:04:55.905Z,98465.94
2022-09-24T10:07:23.440Z,98471.38
2022-09-24T10:10:02.912Z,98469.16
2022-09-24T10:12:30.476Z,98455.44
2022-09-24T10:15:16.177Z,98465.28
2022-09-24T10:17:45.422Z,98460.87
2022-09-24T10:20:29.598Z,98459.19
2022-09-24T10:23:07.013Z,98459.16
2022-09-24T10:25:37.366Z,98463.75
2022-09-24T10:28:28.030Z,98459.59
2022-09-24T10:31:05.833Z,98458.75
2022-09-24T10:33:54.907Z,98455.69
2022-09-24T10:36:24.132Z,98458.91
2022-09-24T10:39:07.528Z,98463.25
2022-09-24T10:41:35.939Z,98467.81
2022-09-24T10:44:13.847Z,98461.28
2022-09-24T10:47:11.614Z,98465.06
2022-09-24T10:49:44.356Z,98460.72
2022-09-24T10:52:46.474Z,98473.50
2022-09-24T10:55:19.216Z,98464.16
2022-09-24T10:57:59.719Z,98460.56
2022-09-24T11:00:58.560Z,98458.06
2022-09-24T11:03:29.740Z,98458.56
2022-09-24T11:06:08.118Z,98457.38
2022-09-24T11:09:10.498Z,98451.56
2022-09-24T11:11:56.132Z,98449.56
2022-09-24T11:14:50.557Z,98451.63
2022-09-24T11:17:33.628Z,98451.06
2022-09-24T11:20:48.954Z,98450.19
2022-09-24T11:23:21.770Z,98451.78
2022-09-24T11:26:13.298Z,98443.19
2022-09-24T11:29:37.500Z,98448.53
2022-09-24T11:32:25.304Z,98447.59
2022-09-24T11:35:04.048Z,98446.37
2022-09-24T11:37:46.277Z,98453.97
2022-09-24T11:40:42.553Z,98456.84
2022-09-24T11:43:37.475Z,98447.34
2022-09-24T11:46:36.714Z,98438.28
2022-09-24T11:49:45.645Z,98440.13
2022-09-24T11:52:24.557Z,98439.81
2022-09-24T11:55:16.184Z,98444.91
2022-09-24T11:57:51.687Z,98434.97
2022-09-24T12:00:20.760Z,98423.94
2022-09-24T12:02:53.485Z,98428.84
2022-09-24T12:05:25.866Z,98436.38
2022-09-24T12:08:05.813Z,98430.19
2022-09-24T12:10:46.173Z,98432.56
2022-09-24T12:13:20.938Z,98430.34
2022-09-24T12:16:09.368Z,98425.69
2022-09-24T12:18:45.348Z,98425.06
2022-09-24T12:21:25.123Z,98427.22
2022-09-24T12:24:02.426Z,98422.75
2022-09-24T12:26:31.467Z,98423.28
2022-09-24T12:29:25.869Z,98424.59
2022-09-24T12:32:19.454Z,98418.81
2022-09-24T12:34:52.237Z,98416.63
2022-09-24T12:37:25.838Z,98419.88
2022-09-24T12:40:22.092Z,98415.69
2022-09-24T12:42:54.559Z,98411.03
2022-09-24T12:45:23.154Z,98413.97
2022-09-24T12:47:56.950Z,98397.72
2022-09-24T12:50:33.462Z,98401.47
2022-09-24T12:53:00.397Z,98398.63
2022-09-24T12:55:30.979Z,98394.47
2022-09-24T12:58:05.247Z,98391.44
2022-09-24T13:00:31.947Z,98401.81
2022-09-24T13:03:00.187Z,98397.94
2022-09-24T13:05:28.761Z,98398.94
2022-09-24T13:08:01.520Z,98397.22
2022-09-24T13:10:31.587Z,98390.59
2022-09-24T13:13:00.410Z,98394.38
2022-09-24T13:15:42.199Z,98392.13
2022-09-24T13:18:08.972Z,98398.66
2022-09-24T13:20:38.215Z,98399.97
2022-09-24T13:23:12.236Z,98391.94
2022-09-24T13:25:39.090Z,98396.81
2022-09-24T13:28:55.476Z,98384.72
2022-09-24T13:31:22.221Z,98390.41
2022-09-24T13:33:57.657Z,98383.78
2022-09-24T13:36:33.225Z,98392.53
2022-09-24T13:39:13.167Z,98394.97
2022-09-24T13:41:56.658Z,98385.91
2022-09-24T13:44:26.227Z,98385.59
2022-09-24T13:47:00.263Z,98388.34
2022-09-24T13:49:30.852Z,98374.03
2022-09-24T13:52:27.240Z,98383.59
2022-09-24T13:55:00.866Z,98379.91
2022-09-24T13:57:30.158Z,98368.28
2022-09-24T14:00:26.314Z,98372.03
2022-09-24T14:03:16.962Z,98376.41
2022-09-24T14:05:43.991Z,98362.91
2022-09-24T14:08:15.732Z,98363.41
2022-09-24T14:10:43.596Z,98358.41
2022-09-24T14:13:23.022Z,98357.00
2022-09-24T14:15:55.897Z,98356.69
2022-09-24T14:18:24.307Z,98359.12
2022-09-24T14:21:10.411Z,98353.00
2022-09-24T14:23:47.329Z,98347.69
2022-09-24T14:26:31.919Z,98349.00
2022-09-24T14:29:03.594Z,98351.44
2022-09-24T14:31:30.719Z,98347.56
2022-09-24T14:34:01.657Z,98344.00
2022-09-24T14:36:29.363Z,98346.75
2022-09-24T14:39:05.721Z,98345.94
2022-09-24T14:41:35.216Z,98336.38
2022-09-24T14:44:20.305Z,98329.25
2022-09-24T14:46:59.061Z,98327.81
2022-09-24T14:49:43.864Z,98330.88
2022-09-24T14:52:30.364Z,98331.69
2022-09-24T14:55:19.329Z,98328.44
2022-09-24T14:57:55.263Z,98329.25
2022-09-24T15:00:24.290Z,98335.56
2022-09-24T15:03:13.748Z,98336.69
2022-09-24T15:05:40.667Z,98339.13
2022-09-24T15:08:23.035Z,98340.25
2022-09-24T15:11:02.025Z,98340.25
2022-09-24T15:13:34.592Z,98343.31
2022-09-24T15:16:28.028Z,98344.94
2022-09-24T15:19:09.766Z,98335.88
2022-09-24T15:21:36.578Z,98333.44
2022-09-24T15:24:03.411Z,98333.75
2022-09-24T15:26:33.354Z,98326.66
2022-09-24T15:29:01.666Z,98328.88
2022-09-24T15:31:29.089Z,98335.50
2022-09-24T15:33:58.725Z,98322.91
2022-09-24T15:36:26.006Z,98324.81
2022-09-24T15:38:58.297Z,98326.28
2022-09-24T15:41:25.039Z,98323.81
2022-09-24T15:43:56.666Z,98311.50
2022-09-24T15:46:23.861Z,98324.41
2022-09-24T15:48:50.608Z,98319.53
2022-09-24T15:51:20.830Z,98322.59
2022-09-24T15:53:48.777Z,98326.44
2022-09-24T15:56:16.412Z,98328.69
2022-09-24T15:58:43.302Z,98326.25
2022-09-24T16:01:15.897Z,98321.38
2022-09-24T16:03:43.566Z,98316.22
2022-09-24T16:06:12.225Z,98316.50
2022-09-24T16:08:38.972Z,98321.50
2022-09-24T16:11:09.025Z,98322.63
2022-09-24T16:13:36.130Z,98322.41
2022-09-24T16:16:07.496Z,98317.53
2022-09-24T16:18:35.624Z,98321.72
2022-09-24T16:21:05.747Z,98324.28
2022-09-24T16:23:32.495Z,98328.75
2022-09-24T16:26:00.065Z,98327.44
2022-09-24T16:28:28.085Z,98316.75
2022-09-24T16:30:55.378Z,98317.06
2022-09-24T16:33:22.785Z,98315.75
2022-09-24T16:35:49.677Z,98316.34
2022-09-24T16:38:22.591Z,98316.16
2022-09-24T16:40:52.190Z,98310.16
2022-09-24T16:43:19.051Z,98314.34
2022-09-24T16:45:45.798Z,98323.69
2022-09-24T16:48:13.686Z,98317.69
2022-09-24T16:50:40.774Z,98309.25
2022-09-24T16:53:07.989Z,98314.56
2022-09-24T16:55:34.806Z,98316.25
2022-09-24T16:58:01.568Z,98319.41
2022-09-24T17:00:28.407Z,98325.53
2022-09-24T17:02:55.215Z,98324.22
2022-09-24T17:05:22.070Z,98322.06
2022-09-24T17:07:48.841Z,98324.31
2022-09-24T17:10:16.219Z,98324.94
2022-09-24T17:12:45.780Z,98327.44
2022-09-24T17:15:14.811Z,98325.88
2022-09-24T17:17:49.573Z,98331.16
2022-09-24T17:20:18.841Z,98329.03
2022-09-24T17:22:48.225Z,98319.78
2022-09-24T17:25:15.316Z,98325.88
2022-09-24T17:27:42.130Z,98329.22
2022-09-24T17:30:10.986Z,98328.19
2022-09-24T17:32:37.820Z,98323.81
2022-09-24T17:35:05.281Z,98323.09
2022-09-24T17:37:32.573Z,98323.72
2022-09-24T17:39:59.724Z,98320.25
2022-09-24T17:42:26.738Z,98312.09
2022-09-24T17:44:53.498Z,98320.12
2022-09-24T17:47:20.265Z,98322.13
2022-09-24T17:49:47.023Z,98319.19
2022-09-24T17:52:13.735Z,98328.81
2022-09-24T17:54:40.586Z,98324.75
2022-09-24T17:57:07.445Z,98327.81
2022-09-24T17:59:34.186Z,98329.47
2022-09-24T18:02:01.055Z,98331.50
2022-09-24T18:04:31.273Z,98329.38
2022-09-24T18:06:58.075Z,98333.22
2022-09-24T18:09:24.907Z,98325.91
2022-09-24T18:11:52.679Z,98331.47
2022-09-24T18:14:23.188Z,98332.03
2022-09-24T18:16:50.882Z,98337.81
2022-09-24T18:19:18.139Z,98332.13
2022-09-24T18:21:46.562Z,98328.34
2022-09-24T18:24:14.606Z,98340.41
2022-09-24T18:26:41.574Z,98351.38
2022-09-24T18:29:14.167Z,98336.34
2022-09-24T18:31:41.564Z,98346.03
2022-09-24T18:34:13.050Z,98339.22
2022-09-24T18:36:41.347Z,98332.37
2022-09-24T18:39:13.737Z,98333.88
2022-09-24T18:41:41.912Z,98339.63
2022-09-24T18:44:09.179Z,98341.88
2022-09-24T18:46:36.186Z,98335.34
2022-09-24T18:49:03.682Z,98335.94
2022-09-24T18:51:37.697Z,98330.75
2022-09-24T18:54:24.638Z,98337.34
2022-09-24T18:56:51.409Z,98326.75
2022-09-24T18:59:21.216Z,98329.78
2022-09-24T19:01:49.041Z,98336.72
2022-09-24T19:04:17.168Z,98334.59
2022-09-24T19:06:45.857Z,98330.25
2022-09-24T19:09:14.847Z,98323.53
2022-09-24T19:11:42.099Z,98319.16
2022-09-24T19:14:13.568Z,98320.34
2022-09-24T19:16:40.612Z,98325.56
2022-09-24T19:19:07.392Z,98321.78
2022-09-24T19:21:34.172Z,98329.75
2022-09-24T19:24:01.204Z,98323.47
2022-09-24T19:26:30.660Z,98325.75
2022-09-24T19:28:58.073Z,98328.25
2022-09-24T19:31:26.283Z,98336.81
2022-09-24T19:33:53.921Z,98336.53
2022-09-24T19:36:21.609Z,98336.34
2022-09-24T19:38:49.718Z,98332.31
2022-09-24T19:41:21.516Z,98329.94
2022-09-24T19:43:51.493Z,98330.50
2022-09-24T19:46:20.293Z,98339.28
2022-09-24T19:48:49.156Z,98331.41
2022-09-24T19:51:18.830Z,98336.62
2022-09-24T19:53:51.119Z,98336.16
2022-09-24T19:56:21.126Z,98328.28
2022-09-24T19:58:49.858Z,98331.06
2022-09-24T20:01:17.719Z,98335.94
2022-09-24T20:03:44.939Z,98340.81
2022-09-24T20:06:20.950Z,98333.16
2022-09-24T20:08:47.711Z,98340.69
2022-09-24T20:11:21.138Z,98333.09
2022-09-24T20:13:52.744Z,98340.81
2022-09-24T20:16:26.363Z,98339.47
2022-09-24T20:18:57.806Z,98338.44
2022-09-24T20:21:31.453Z,98334.63
2022-09-24T20:23:59.220Z,98326.75
2022-09-24T20:26:45.251Z,98327.84
2022-09-24T20:29:13.718Z,98312.38
2022-09-24T20:31:53.764Z,98309.63
2022-09-24T20:34:23.356Z,98309.59
2022-09-24T20:36:50.839Z,98306.91
2022-09-24T20:39:18.060Z,98299.00
2022-09-24T20:41:45.456Z,98306.66
2022-09-24T20:44:12.837Z,98309.19
2022-09-24T20:46:39.826Z,98314.13
2022-09-24T20:49:06.716Z,98309.22
2022-09-24T20:51:33.740Z,98308.94
2022-09-24T20:54:00.883Z,98317.44
2022-09-24T20:56:30.632Z,98321.28
2022-09-24T20:58:57.738Z,98320.75
2022-09-24T21:01:25.073Z,98323.78
2022-09-24T21:03:52.003Z,98321.03
2022-09-24T21:06:22.977Z,98322.97
2022-09-24T21:08:50.439Z,98321.34
2022-09-24T21:11:19.779Z,98320.00
2022-09-24T21:13:50.159Z,98327.13
2022-09-24T21:16:22.274Z,98328.50
2022-09-24T21:18:50.858Z,98333.16
2022-09-24T21:21:20.491Z,98334.50
2022-09-24T21:23:49.974Z,98328.25
2022-09-24T21:26:24.773Z,98325.78
2022-09-24T21:28:55.775Z,98323.91
2022-09-24T21:31:25.324Z,98323.66
2022-09-24T21:33:53.376Z,98322.84
2022-09-24T21:36:25.917Z,98324.19
2022-09-24T21:38:54.335Z,98326.13
2022-09-24T21:41:26.199Z,98316.84
2022-09-24T21:43:55.915Z,98321.22
2022-09-24T21:46:23.934Z,98316.59
2022-09-24T21:48:51.580Z,98313.59
2022-09-24T21:51:21.537Z,98306.78
2022-09-24T21:53:53.952Z,98307.91
2022-09-24T21:56:21.922Z,98302.72
2022-09-24T21:58:49.839Z,98298.34
2022-09-24T22:01:33.894Z,98308.16
2022-09-24T22:04:05.787Z,98304.88
2022-09-24T22:06:32.934Z,98302.44
2022-09-24T22:09:06.824Z,98305.44
2022-09-24T22:11:34.585Z,98311.72
2022-09-24T22:14:02.434Z,98312.53
2022-09-24T22:16:31.643Z,98297.53
2022-09-24T22:18:59.169Z,98303.00
2022-09-24T22:21:26.409Z,98302.72
2022-09-24T22:23:53.763Z,98299.44
2022-09-24T22:26:20.883Z,98306.53
2022-09-24T22:28:48.597Z,98311.72
2022-09-24T22:31:17.832Z,98304.38
2022-09-24T22:34:04.072Z,98293.47
2022-09-24T22:36:33.096Z,98297.25
2022-09-24T22:39:01.178Z,98294.81
2022-09-24T22:41:29.569Z,98297.81
2022-09-24T22:43:57.597Z,98292.38
2022-09-24T22:46:27.124Z,98289.66
2022-09-24T22:48:55.386Z,98292.09
2022-09-24T22:51:24.227Z,98289.13
2022-09-24T22:53:52.809Z,98281.50
2022-09-24T22:56:25.438Z,98279.03
2022-09-24T22:58:54.854Z,98287.19
2022-09-24T23:01:43.061Z,98289.34
2022-09-24T23:04:15.252Z,98289.09
2022-09-24T23:06:43.684Z,98295.34
2022-09-24T23:09:11.372Z,98290.72
2022-09-24T23:11:38.672Z,98293.44
2022-09-24T23:14:10.989Z,98293.97
2022-09-24T23:16:38.627Z,98293.97
2022-09-24T23:19:08.219Z,98293.72
2022-09-24T23:21:35.340Z,98294.50
2022-09-24T23:24:08.359Z,98297.22
2022-09-24T23:26:35.565Z,98293.13
2022-09-24T23:29:02.338Z,98299.38
2022-09-24T23:31:34.408Z,98296.13
2022-09-24T23:34:01.721Z,98295.28
2022-09-24T23:36:31.196Z,98290.12
2022-09-24T23:38:59.301Z,98292.84
2022-09-24T23:41:26.208Z,98297.69
2022-09-24T23:43:52.977Z,98299.31
2022-09-24T23:46:20.946Z,98298.78
2022-09-24T23:48:47.922Z,98292.50
2022-09-24T23:51:14.701Z,98293.59
2022-09-24T23:53:41.826Z,98290.06
2022-09-24T23:56:08.874Z,98296.59
2022-09-24T23:58:36.240Z,98284.88
